sensor_id;sensor_type;location;lat;lon;timestamp;P1;durP1;ratioP1;P2;durP2;ratioP2
28447;SDS011;15675;52.870;-1.416;2022-10-17T00:00:42;5.70;;;2.38;;
28447;SDS011;15675;52.870;-1.416;2022-10-17T00:03:08;5.25;;;2.35;;
28447;SDS011;15675;52.870;-1.416;2022-10-17T00:05:37;4.97;;;2.35;;
28447;SDS011;15675;52.870;-1.416;2022-10-17T00:08:07;4.72;;;2.03;;
28447;SDS011;15675;52.870;-1.416;2022-10-17T00:10:33;3.58;;;2.10;;
28447;SDS011;15675;52.870;-1.416;2022-10-17T00:12:59;3.38;;;2.08;;
28447;SDS011;15675;52.870;-1.416;2022-10-17T00:15:25;4.30;;;2.10;;
28447;SDS011;15675;52.870;-1.416;2022-10-17T00:17:50;4.07;;;1.70;;
28447;SDS011;15675;52.870;-1.416;2022-10-17T00:20:16;3.38;;;1.73;;
28447;SDS011;15675;52.870;-1.416;2022-10-17T00:22:42;3.63;;;1.83;;
28447;SDS011;15675;52.870;-1.416;2022-10-17T00:25:07;2.47;;;1.45;;
28447;SDS011;15675;52.870;-1.416;2022-10-17T00:27:37;3.03;;;1.70;;
28447;SDS011;15675;52.870;-1.416;2022-10-17T00:30:04;4.57;;;1.90;;
28447;SDS011;15675;52.870;-1.416;2022-10-17T00:32:32;2.50;;;1.27;;
28447;SDS011;15675;52.870;-1.416;2022-10-17T00:34:57;4.40;;;1.60;;
28447;SDS011;15675;52.870;-1.416;2022-10-17T00:37:23;4.60;;;1.63;;
28447;SDS011;15675;52.870;-1.416;2022-10-17T00:39:49;9.40;;;1.50;;
28447;SDS011;15675;52.870;-1.416;2022-10-17T00:42:14;8.23;;;1.50;;
28447;SDS011;15675;52.870;-1.416;2022-10-17T00:47:09;4.05;;;1.35;;
28447;SDS011;15675;52.870;-1.416;2022-10-17T00:49:38;3.23;;;1.50;;
28447;SDS011;15675;52.870;-1.416;2022-10-17T00:52:05;5.43;;;1.40;;
28447;SDS011;15675;52.870;-1.416;2022-10-17T00:54:39;5.80;;;1.42;;
28447;SDS011;15675;52.870;-1.416;2022-10-17T00:57:09;6.10;;;1.55;;
28447;SDS011;15675;52.870;-1.416;2022-10-17T00:59:36;3.55;;;1.05;;
28447;SDS011;15675;52.870;-1.416;2022-10-17T01:02:05;2.38;;;1.27;;
28447;SDS011;15675;52.870;-1.416;2022-10-17T01:04:34;8.77;;;1.33;;
28447;SDS011;15675;52.870;-1.416;2022-10-17T01:07:01;4.03;;;1.17;;
28447;SDS011;15675;52.870;-1.416;2022-10-17T01:09:27;3.42;;;1.20;;
28447;SDS011;15675;52.870;-1.416;2022-10-17T01:12:36;5.47;;;1.40;;
28447;SDS011;15675;52.870;-1.416;2022-10-17T01:34:17;5.55;;;1.10;;
28447;SDS011;15675;52.870;-1.416;2022-10-17T01:36:51;5.03;;;1.30;;
28447;SDS011;15675;52.870;-1.416;2022-10-17T01:44:55;3.80;;;1.10;;
28447;SDS011;15675;52.870;-1.416;2022-10-17T01:47:28;4.07;;;1.00;;
28447;SDS011;15675;52.870;-1.416;2022-10-17T01:52:54;5.90;;;1.27;;
28447;SDS011;15675;52.870;-1.416;2022-10-17T01:55:31;8.18;;;1.52;;
28447;SDS011;15675;52.870;-1.416;2022-10-17T01:58:15;5.93;;;1.20;;
28447;SDS011;15675;52.870;-1.416;2022-10-17T02:00:48;5.85;;;1.35;;
28447;SDS011;15675;52.870;-1.416;2022-10-17T02:03:16;5.00;;;1.30;;
28447;SDS011;15675;52.870;-1.416;2022-10-17T02:05:45;6.65;;;1.10;;
28447;SDS011;15675;52.870;-1.416;2022-10-17T02:08:10;6.68;;;1.10;;
28447;SDS011;15675;52.870;-1.416;2022-10-17T02:21:06;9.07;;;1.50;;
28447;SDS011;15675;52.870;-1.416;2022-10-17T02:26:10;5.03;;;0.90;;
28447;SDS011;15675;52.870;-1.416;2022-10-17T02:28:46;4.32;;;1.20;;
28447;SDS011;15675;52.870;-1.416;2022-10-17T02:31:40;9.35;;;1.40;;
28447;SDS011;15675;52.870;-1.416;2022-10-17T02:34:11;5.70;;;1.20;;
28447;SDS011;15675;52.870;-1.416;2022-10-17T02:36:44;7.15;;;1.45;;
28447;SDS011;15675;52.870;-1.416;2022-10-17T02:39:19;8.20;;;1.30;;
28447;SDS011;15675;52.870;-1.416;2022-10-17T02:41:48;10.75;;;1.90;;
28447;SDS011;15675;52.870;-1.416;2022-10-17T02:44:15;9.25;;;1.80;;
28447;SDS011;15675;52.870;-1.416;2022-10-17T02:46:41;5.53;;;1.40;;
28447;SDS011;15675;52.870;-1.416;2022-10-17T02:49:19;7.63;;;1.60;;
28447;SDS011;15675;52.870;-1.416;2022-10-17T02:51:54;9.10;;;1.33;;
28447;SDS011;15675;52.870;-1.416;2022-10-17T02:54:44;8.50;;;1.75;;
28447;SDS011;15675;52.870;-1.416;2022-10-17T02:59:54;11.00;;;1.73;;
28447;SDS011;15675;52.870;-1.416;2022-10-17T03:02:22;5.70;;;1.20;;
28447;SDS011;15675;52.870;-1.416;2022-10-17T03:04:47;6.25;;;1.42;;
28447;SDS011;15675;52.870;-1.416;2022-10-17T03:07:13;7.47;;;1.73;;
28447;SDS011;15675;52.870;-1.416;2022-10-17T03:09:39;7.40;;;1.73;;
28447;SDS011;15675;52.870;-1.416;2022-10-17T03:12:04;6.15;;;1.13;;
28447;SDS011;15675;52.870;-1.416;2022-10-17T03:14:30;7.75;;;1.58;;
28447;SDS011;15675;52.870;-1.416;2022-10-17T03:16:55;6.68;;;1.33;;
28447;SDS011;15675;52.870;-1.416;2022-10-17T03:19:21;9.05;;;2.05;;
28447;SDS011;15675;52.870;-1.416;2022-10-17T03:21:46;5.55;;;1.58;;
28447;SDS011;15675;52.870;-1.416;2022-10-17T03:24:12;4.75;;;1.30;;
28447;SDS011;15675;52.870;-1.416;2022-10-17T03:26:38;5.35;;;1.25;;
28447;SDS011;15675;52.870;-1.416;2022-10-17T03:29:03;6.70;;;1.50;;
28447;SDS011;15675;52.870;-1.416;2022-10-17T03:31:29;10.30;;;1.98;;
28447;SDS011;15675;52.870;-1.416;2022-10-17T03:33:54;8.05;;;1.40;;
28447;SDS011;15675;52.870;-1.416;2022-10-17T03:36:20;9.85;;;2.10;;
28447;SDS011;15675;52.870;-1.416;2022-10-17T03:38:45;7.55;;;1.50;;
28447;SDS011;15675;52.870;-1.416;2022-10-17T03:41:12;9.18;;;1.50;;
28447;SDS011;15675;52.870;-1.416;2022-10-17T03:43:38;10.88;;;1.45;;
28447;SDS011;15675;52.870;-1.416;2022-10-17T03:46:04;5.88;;;1.63;;
28447;SDS011;15675;52.870;-1.416;2022-10-17T03:48:30;8.48;;;1.63;;
28447;SDS011;15675;52.870;-1.416;2022-10-17T03:51:00;6.13;;;1.98;;
28447;SDS011;15675;52.870;-1.416;2022-10-17T03:53:27;9.98;;;2.33;;
28447;SDS011;15675;52.870;-1.416;2022-10-17T03:55:53;11.13;;;1.75;;
28447;SDS011;15675;52.870;-1.416;2022-10-17T03:58:18;9.60;;;1.38;;
28447;SDS011;15675;52.870;-1.416;2022-10-17T04:00:44;7.63;;;1.95;;
28447;SDS011;15675;52.870;-1.416;2022-10-17T04:03:09;9.52;;;1.77;;
28447;SDS011;15675;52.870;-1.416;2022-10-17T04:05:35;8.15;;;1.50;;
28447;SDS011;15675;52.870;-1.416;2022-10-17T04:08:00;7.07;;;1.63;;
28447;SDS011;15675;52.870;-1.416;2022-10-17T04:10:26;7.03;;;1.48;;
28447;SDS011;15675;52.870;-1.416;2022-10-17T04:12:51;5.68;;;1.42;;
28447;SDS011;15675;52.870;-1.416;2022-10-17T04:15:17;10.05;;;1.60;;
28447;SDS011;15675;52.870;-1.416;2022-10-17T04:17:42;10.15;;;1.90;;
28447;SDS011;15675;52.870;-1.416;2022-10-17T04:20:08;9.77;;;1.52;;
28447;SDS011;15675;52.870;-1.416;2022-10-17T04:22:33;8.57;;;1.65;;
28447;SDS011;15675;52.870;-1.416;2022-10-17T04:24:59;14.05;;;1.50;;
28447;SDS011;15675;52.870;-1.416;2022-10-17T04:27:24;7.82;;;1.75;;
28447;SDS011;15675;52.870;-1.416;2022-10-17T04:29:50;12.00;;;1.63;;
28447;SDS011;15675;52.870;-1.416;2022-10-17T04:32:15;8.75;;;2.00;;
28447;SDS011;15675;52.870;-1.416;2022-10-17T04:34:41;6.18;;;1.50;;
28447;SDS011;15675;52.870;-1.416;2022-10-17T04:37:07;6.90;;;1.35;;
28447;SDS011;15675;52.870;-1.416;2022-10-17T04:39:32;7.60;;;1.70;;
28447;SDS011;15675;52.870;-1.416;2022-10-17T04:41:58;6.18;;;1.10;;
28447;SDS011;15675;52.870;-1.416;2022-10-17T04:44:23;7.90;;;1.38;;
28447;SDS011;15675;52.870;-1.416;2022-10-17T04:46:49;6.63;;;1.63;;
28447;SDS011;15675;52.870;-1.416;2022-10-17T04:49:14;9.70;;;1.80;;
28447;SDS011;15675;52.870;-1.416;2022-10-17T04:51:40;6.05;;;1.38;;
28447;SDS011;15675;52.870;-1.416;2022-10-17T04:54:06;15.27;;;1.95;;
28447;SDS011;15675;52.870;-1.416;2022-10-17T04:56:31;10.30;;;1.50;;
28447;SDS011;15675;52.870;-1.416;2022-10-17T04:58:57;8.82;;;1.40;;
28447;SDS011;15675;52.870;-1.416;2022-10-17T05:01:24;6.40;;;1.52;;
28447;SDS011;15675;52.870;-1.416;2022-10-17T05:03:50;9.75;;;1.17;;
28447;SDS011;15675;52.870;-1.416;2022-10-17T05:06:18;13.35;;;1.60;;
28447;SDS011;15675;52.870;-1.416;2022-10-17T05:08:49;7.63;;;1.73;;
28447;SDS011;15675;52.870;-1.416;2022-10-17T05:11:18;10.90;;;1.55;;
28447;SDS011;15675;52.870;-1.416;2022-10-17T05:16:21;10.10;;;1.25;;
28447;SDS011;15675;52.870;-1.416;2022-10-17T05:18:47;12.68;;;1.73;;
28447;SDS011;15675;52.870;-1.416;2022-10-17T05:21:14;9.68;;;1.95;;
28447;SDS011;15675;52.870;-1.416;2022-10-17T05:23:40;8.30;;;2.13;;
28447;SDS011;15675;52.870;-1.416;2022-10-17T05:26:05;7.97;;;1.52;;
28447;SDS011;15675;52.870;-1.416;2022-10-17T05:28:31;14.05;;;1.90;;
28447;SDS011;15675;52.870;-1.416;2022-10-17T05:30:56;7.32;;;1.77;;
28447;SDS011;15675;52.870;-1.416;2022-10-17T05:33:22;8.43;;;1.20;;
28447;SDS011;15675;52.870;-1.416;2022-10-17T05:35:48;13.23;;;2.10;;
28447;SDS011;15675;52.870;-1.416;2022-10-17T05:38:13;15.00;;;2.00;;
28447;SDS011;15675;52.870;-1.416;2022-10-17T05:40:39;2.90;;;1.13;;
28447;SDS011;15675;52.870;-1.416;2022-10-17T05:43:04;10.55;;;1.63;;
28447;SDS011;15675;52.870;-1.416;2022-10-17T05:45:30;8.60;;;2.08;;
28447;SDS011;15675;52.870;-1.416;2022-10-17T05:47:55;9.70;;;1.70;;
28447;SDS011;15675;52.870;-1.416;2022-10-17T05:50:21;11.13;;;1.60;;
28447;SDS011;15675;52.870;-1.416;2022-10-17T05:52:51;8.50;;;1.60;;
28447;SDS011;15675;52.870;-1.416;2022-10-17T05:55:18;19.42;;;1.92;;
28447;SDS011;15675;52.870;-1.416;2022-10-17T05:57:43;11.20;;;1.90;;
28447;SDS011;15675;52.870;-1.416;2022-10-17T06:00:09;14.13;;;1.60;;
28447;SDS011;15675;52.870;-1.416;2022-10-17T06:02:35;10.65;;;1.70;;
28447;SDS011;15675;52.870;-1.416;2022-10-17T06:05:00;13.05;;;1.92;;
28447;SDS011;15675;52.870;-1.416;2022-10-17T06:07:26;14.02;;;2.05;;
28447;SDS011;15675;52.870;-1.416;2022-10-17T06:09:52;13.13;;;1.75;;
28447;SDS011;15675;52.870;-1.416;2022-10-17T06:12:17;10.55;;;2.10;;
28447;SDS011;15675;52.870;-1.416;2022-10-17T06:14:43;6.90;;;1.80;;
28447;SDS011;15675;52.870;-1.416;2022-10-17T06:17:08;15.40;;;2.53;;
28447;SDS011;15675;52.870;-1.416;2022-10-17T06:19:34;18.00;;;1.85;;
28447;SDS011;15675;52.870;-1.416;2022-10-17T06:21:59;11.88;;;1.80;;
28447;SDS011;15675;52.870;-1.416;2022-10-17T06:24:25;18.17;;;2.85;;
28447;SDS011;15675;52.870;-1.416;2022-10-17T06:26:50;17.10;;;2.28;;
28447;SDS011;15675;52.870;-1.416;2022-10-17T06:29:16;16.65;;;2.17;;
28447;SDS011;15675;52.870;-1.416;2022-10-17T06:31:41;10.73;;;2.05;;
28447;SDS011;15675;52.870;-1.416;2022-10-17T06:34:07;10.60;;;2.00;;
28447;SDS011;15675;52.870;-1.416;2022-10-17T06:36:32;14.27;;;2.28;;
28447;SDS011;15675;52.870;-1.416;2022-10-17T06:38:58;12.98;;;2.25;;
28447;SDS011;15675;52.870;-1.416;2022-10-17T06:41:23;8.50;;;1.85;;
28447;SDS011;15675;52.870;-1.416;2022-10-17T06:43:49;13.88;;;2.05;;
28447;SDS011;15675;52.870;-1.416;2022-10-17T06:46:15;18.02;;;1.80;;
28447;SDS011;15675;52.870;-1.416;2022-10-17T06:48:42;13.77;;;2.25;;
28447;SDS011;15675;52.870;-1.416;2022-10-17T06:51:08;18.67;;;3.13;;
28447;SDS011;15675;52.870;-1.416;2022-10-17T06:53:35;12.82;;;2.08;;
28447;SDS011;15675;52.870;-1.416;2022-10-17T06:56:02;15.05;;;2.50;;
28447;SDS011;15675;52.870;-1.416;2022-10-17T06:58:29;15.20;;;2.78;;
28447;SDS011;15675;52.870;-1.416;2022-10-17T07:00:57;11.18;;;2.08;;
28447;SDS011;15675;52.870;-1.416;2022-10-17T07:03:23;16.45;;;2.22;;
28447;SDS011;15675;52.870;-1.416;2022-10-17T07:05:52;17.52;;;2.60;;
28447;SDS011;15675;52.870;-1.416;2022-10-17T07:08:19;13.18;;;2.20;;
28447;SDS011;15675;52.870;-1.416;2022-10-17T07:10:44;12.60;;;1.90;;
28447;SDS011;15675;52.870;-1.416;2022-10-17T07:13:10;15.90;;;1.77;;
28447;SDS011;15675;52.870;-1.416;2022-10-17T07:15:36;20.60;;;2.42;;
28447;SDS011;15675;52.870;-1.416;2022-10-17T07:18:02;27.63;;;2.63;;
28447;SDS011;15675;52.870;-1.416;2022-10-17T07:20:28;21.40;;;2.33;;
28447;SDS011;15675;52.870;-1.416;2022-10-17T07:22:53;10.20;;;1.95;;
28447;SDS011;15675;52.870;-1.416;2022-10-17T07:25:19;11.93;;;2.60;;
28447;SDS011;15675;52.870;-1.416;2022-10-17T07:27:44;18.70;;;2.17;;
28447;SDS011;15675;52.870;-1.416;2022-10-17T07:30:10;16.58;;;2.72;;
28447;SDS011;15675;52.870;-1.416;2022-10-17T07:32:36;17.02;;;2.22;;
28447;SDS011;15675;52.870;-1.416;2022-10-17T07:35:01;23.90;;;2.65;;
28447;SDS011;15675;52.870;-1.416;2022-10-17T07:37:27;16.17;;;2.50;;
28447;SDS011;15675;52.870;-1.416;2022-10-17T07:39:53;13.23;;;2.25;;
28447;SDS011;15675;52.870;-1.416;2022-10-17T07:42:20;16.45;;;2.47;;
28447;SDS011;15675;52.870;-1.416;2022-10-17T07:44:46;15.15;;;2.58;;
28447;SDS011;15675;52.870;-1.416;2022-10-17T07:47:12;22.65;;;2.35;;
28447;SDS011;15675;52.870;-1.416;2022-10-17T07:49:37;12.90;;;2.03;;
28447;SDS011;15675;52.870;-1.416;2022-10-17T07:52:11;11.80;;;2.58;;
28447;SDS011;15675;52.870;-1.416;2022-10-17T07:54:38;14.73;;;2.17;;
28447;SDS011;15675;52.870;-1.416;2022-10-17T07:57:04;18.55;;;3.00;;
28447;SDS011;15675;52.870;-1.416;2022-10-17T07:59:31;22.67;;;2.85;;
28447;SDS011;15675;52.870;-1.416;2022-10-17T08:01:58;14.23;;;2.70;;
28447;SDS011;15675;52.870;-1.416;2022-10-17T08:04:24;13.80;;;2.63;;
28447;SDS011;15675;52.870;-1.416;2022-10-17T08:06:50;18.40;;;2.13;;
28447;SDS011;15675;52.870;-1.416;2022-10-17T08:09:16;17.70;;;2.35;;
28447;SDS011;15675;52.870;-1.416;2022-10-17T08:11:42;18.85;;;2.20;;
28447;SDS011;15675;52.870;-1.416;2022-10-17T08:14:08;17.55;;;2.20;;
28447;SDS011;15675;52.870;-1.416;2022-10-17T08:16:34;13.77;;;2.50;;
28447;SDS011;15675;52.870;-1.416;2022-10-17T08:19:00;24.52;;;3.25;;
28447;SDS011;15675;52.870;-1.416;2022-10-17T08:21:26;18.48;;;2.70;;
28447;SDS011;15675;52.870;-1.416;2022-10-17T08:23:52;11.63;;;2.58;;
28447;SDS011;15675;52.870;-1.416;2022-10-17T08:26:18;13.57;;;1.83;;
28447;SDS011;15675;52.870;-1.416;2022-10-17T08:28:44;20.98;;;3.28;;
28447;SDS011;15675;52.870;-1.416;2022-10-17T08:31:12;23.48;;;2.67;;
28447;SDS011;15675;52.870;-1.416;2022-10-17T08:33:41;13.13;;;2.28;;
28447;SDS011;15675;52.870;-1.416;2022-10-17T08:36:07;17.85;;;2.50;;
28447;SDS011;15675;52.870;-1.416;2022-10-17T08:38:34;18.63;;;2.20;;
28447;SDS011;15675;52.870;-1.416;2022-10-17T08:41:02;16.90;;;2.33;;
28447;SDS011;15675;52.870;-1.416;2022-10-17T08:43:38;15.10;;;2.22;;
28447;SDS011;15675;52.870;-1.416;2022-10-17T08:46:15;14.85;;;2.05;;
28447;SDS011;15675;52.870;-1.416;2022-10-17T08:48:42;23.75;;;2.33;;
28447;SDS011;15675;52.870;-1.416;2022-10-17T08:51:20;14.18;;;2.17;;
28447;SDS011;15675;52.870;-1.416;2022-10-17T08:56:17;18.60;;;2.60;;
28447;SDS011;15675;52.870;-1.416;2022-10-17T08:58:57;14.35;;;2.85;;
28447;SDS011;15675;52.870;-1.416;2022-10-17T09:10:24;11.73;;;2.15;;
28447;SDS011;15675;52.870;-1.416;2022-10-17T09:13:06;22.45;;;2.78;;
28447;SDS011;15675;52.870;-1.416;2022-10-17T09:15:51;16.23;;;2.58;;
28447;SDS011;15675;52.870;-1.416;2022-10-17T09:18:30;15.25;;;2.70;;
28447;SDS011;15675;52.870;-1.416;2022-10-17T09:21:12;21.75;;;2.65;;
28447;SDS011;15675;52.870;-1.416;2022-10-17T09:23:49;13.93;;;2.15;;
28447;SDS011;15675;52.870;-1.416;2022-10-17T09:26:17;16.08;;;2.88;;
28447;SDS011;15675;52.870;-1.416;2022-10-17T09:28:42;14.95;;;2.03;;
28447;SDS011;15675;52.870;-1.416;2022-10-17T09:33:39;14.82;;;2.60;;
28447;SDS011;15675;52.870;-1.416;2022-10-17T09:36:15;20.17;;;3.00;;
28447;SDS011;15675;52.870;-1.416;2022-10-17T09:38:44;13.50;;;2.35;;
28447;SDS011;15675;52.870;-1.416;2022-10-17T09:41:14;10.82;;;1.67;;
28447;SDS011;15675;52.870;-1.416;2022-10-17T09:43:42;19.15;;;2.33;;
28447;SDS011;15675;52.870;-1.416;2022-10-17T09:49:01;16.77;;;2.88;;
28447;SDS011;15675;52.870;-1.416;2022-10-17T09:51:33;17.90;;;2.63;;
28447;SDS011;15675;52.870;-1.416;2022-10-17T09:54:04;13.93;;;2.72;;
28447;SDS011;15675;52.870;-1.416;2022-10-17T09:56:59;9.38;;;1.90;;
28447;SDS011;15675;52.870;-1.416;2022-10-17T09:59:30;13.27;;;2.33;;
28447;SDS011;15675;52.870;-1.416;2022-10-17T10:04:56;12.60;;;2.35;;
28447;SDS011;15675;52.870;-1.416;2022-10-17T10:07:31;16.77;;;2.38;;
28447;SDS011;15675;52.870;-1.416;2022-10-17T10:09:59;13.10;;;2.90;;
28447;SDS011;15675;52.870;-1.416;2022-10-17T10:12:29;14.65;;;2.33;;
28447;SDS011;15675;52.870;-1.416;2022-10-17T10:14:56;18.30;;;2.38;;
28447;SDS011;15675;52.870;-1.416;2022-10-17T10:17:27;15.77;;;2.30;;
28447;SDS011;15675;52.870;-1.416;2022-10-17T10:23:06;12.43;;;1.90;;
28447;SDS011;15675;52.870;-1.416;2022-10-17T10:25:47;17.88;;;3.05;;
28447;SDS011;15675;52.870;-1.416;2022-10-17T10:28:16;11.40;;;1.75;;
28447;SDS011;15675;52.870;-1.416;2022-10-17T10:30:44;15.30;;;3.17;;
28447;SDS011;15675;52.870;-1.416;2022-10-17T10:33:12;11.15;;;1.90;;
28447;SDS011;15675;52.870;-1.416;2022-10-17T10:35:38;16.75;;;2.30;;
28447;SDS011;15675;52.870;-1.416;2022-10-17T10:38:07;16.63;;;2.28;;
28447;SDS011;15675;52.870;-1.416;2022-10-17T10:40:44;17.75;;;1.98;;
28447;SDS011;15675;52.870;-1.416;2022-10-17T10:45:57;12.60;;;1.50;;
28447;SDS011;15675;52.870;-1.416;2022-10-17T10:48:24;10.43;;;1.75;;
28447;SDS011;15675;52.870;-1.416;2022-10-17T10:50:53;7.90;;;1.40;;
28447;SDS011;15675;52.870;-1.416;2022-10-17T11:06:52;14.13;;;2.25;;
28447;SDS011;15675;52.870;-1.416;2022-10-17T11:09:27;13.07;;;2.10;;
28447;SDS011;15675;52.870;-1.416;2022-10-17T11:11:57;10.23;;;1.70;;
28447;SDS011;15675;52.870;-1.416;2022-10-17T11:14:36;13.30;;;1.83;;
28447;SDS011;15675;52.870;-1.416;2022-10-17T11:20:01;11.30;;;2.08;;
28447;SDS011;15675;52.870;-1.416;2022-10-17T11:22:54;17.10;;;1.90;;
28447;SDS011;15675;52.870;-1.416;2022-10-17T11:27:58;10.00;;;2.00;;
28447;SDS011;15675;52.870;-1.416;2022-10-17T11:30:26;8.38;;;1.92;;
28447;SDS011;15675;52.870;-1.416;2022-10-17T11:32:57;12.55;;;1.92;;
28447;SDS011;15675;52.870;-1.416;2022-10-17T11:35:25;16.05;;;2.00;;
28447;SDS011;15675;52.870;-1.416;2022-10-17T11:40:41;9.85;;;1.88;;
28447;SDS011;15675;52.870;-1.416;2022-10-17T11:43:16;19.25;;;2.88;;
28447;SDS011;15675;52.870;-1.416;2022-10-17T11:45:51;11.85;;;1.98;;
28447;SDS011;15675;52.870;-1.416;2022-10-17T11:48:26;12.23;;;2.75;;
28447;SDS011;15675;52.870;-1.416;2022-10-17T11:50:59;10.60;;;1.77;;
28447;SDS011;15675;52.870;-1.416;2022-10-17T11:53:48;11.43;;;1.58;;
28447;SDS011;15675;52.870;-1.416;2022-10-17T11:57:10;15.43;;;1.50;;
28447;SDS011;15675;52.870;-1.416;2022-10-17T12:02:41;9.05;;;1.50;;
28447;SDS011;15675;52.870;-1.416;2022-10-17T12:15:52;11.75;;;1.50;;
28447;SDS011;15675;52.870;-1.416;2022-10-17T12:18:19;9.25;;;1.30;;
28447;SDS011;15675;52.870;-1.416;2022-10-17T12:20:56;8.95;;;1.50;;
28447;SDS011;15675;52.870;-1.416;2022-10-17T12:25:58;9.43;;;1.23;;
28447;SDS011;15675;52.870;-1.416;2022-10-17T12:28:32;9.43;;;1.88;;
28447;SDS011;15675;52.870;-1.416;2022-10-17T12:33:59;6.30;;;1.15;;
28447;SDS011;15675;52.870;-1.416;2022-10-17T12:46:49;6.07;;;1.60;;
28447;SDS011;15675;52.870;-1.416;2022-10-17T12:49:19;9.68;;;1.58;;
28447;SDS011;15675;52.870;-1.416;2022-10-17T12:52:05;8.45;;;1.40;;
28447;SDS011;15675;52.870;-1.416;2022-10-17T12:54:40;16.38;;;1.98;;
28447;SDS011;15675;52.870;-1.416;2022-10-17T12:57:16;9.68;;;1.38;;
28447;SDS011;15675;52.870;-1.416;2022-10-17T12:59:51;11.98;;;1.15;;
28447;SDS011;15675;52.870;-1.416;2022-10-17T13:02:22;8.85;;;1.40;;
28447;SDS011;15675;52.870;-1.416;2022-10-17T13:04:50;9.10;;;1.33;;
28447;SDS011;15675;52.870;-1.416;2022-10-17T13:07:21;5.78;;;1.10;;
28447;SDS011;15675;52.870;-1.416;2022-10-17T13:09:47;9.95;;;1.30;;
28447;SDS011;15675;52.870;-1.416;2022-10-17T13:12:19;6.25;;;1.00;;
28447;SDS011;15675;52.870;-1.416;2022-10-17T13:14:50;12.18;;;1.83;;
28447;SDS011;15675;52.870;-1.416;2022-10-17T13:17:25;7.28;;;1.95;;
28447;SDS011;15675;52.870;-1.416;2022-10-17T13:19:53;9.23;;;1.60;;
28447;SDS011;15675;52.870;-1.416;2022-10-17T13:24:47;10.07;;;1.70;;
28447;SDS011;15675;52.870;-1.416;2022-10-17T13:29:56;6.53;;;1.13;;
28447;SDS011;15675;52.870;-1.416;2022-10-17T13:32:24;5.50;;;1.00;;
28447;SDS011;15675;52.870;-1.416;2022-10-17T13:35:07;5.13;;;0.77;;
28447;SDS011;15675;52.870;-1.416;2022-10-17T13:37:38;6.30;;;1.30;;
28447;SDS011;15675;52.870;-1.416;2022-10-17T13:40:06;6.68;;;1.52;;
28447;SDS011;15675;52.870;-1.416;2022-10-17T13:42:40;10.18;;;1.20;;
28447;SDS011;15675;52.870;-1.416;2022-10-17T13:45:16;7.63;;;1.00;;
28447;SDS011;15675;52.870;-1.416;2022-10-17T13:47:53;4.97;;;1.00;;
28447;SDS011;15675;52.870;-1.416;2022-10-17T13:50:41;9.13;;;1.25;;
28447;SDS011;15675;52.870;-1.416;2022-10-17T13:58:20;6.78;;;1.45;;
28447;SDS011;15675;52.870;-1.416;2022-10-17T14:00:47;6.80;;;1.35;;
28447;SDS011;15675;52.870;-1.416;2022-10-17T14:03:17;5.22;;;1.40;;
28447;SDS011;15675;52.870;-1.416;2022-10-17T14:05:57;10.55;;;1.48;;
28447;SDS011;15675;52.870;-1.416;2022-10-17T14:08:24;5.97;;;1.27;;
28447;SDS011;15675;52.870;-1.416;2022-10-17T14:10:50;6.25;;;1.10;;
28447;SDS011;15675;52.870;-1.416;2022-10-17T14:13:22;5.97;;;1.08;;
28447;SDS011;15675;52.870;-1.416;2022-10-17T14:15:51;11.50;;;1.15;;
28447;SDS011;15675;52.870;-1.416;2022-10-17T14:18:29;3.58;;;0.82;;
28447;SDS011;15675;52.870;-1.416;2022-10-17T14:20:57;7.43;;;0.93;;
28447;SDS011;15675;52.870;-1.416;2022-10-17T14:23:27;5.72;;;1.17;;
28447;SDS011;15675;52.870;-1.416;2022-10-17T14:26:12;4.93;;;1.10;;
28447;SDS011;15675;52.870;-1.416;2022-10-17T14:28:41;6.45;;;1.23;;
28447;SDS011;15675;52.870;-1.416;2022-10-17T14:33:43;3.75;;;1.05;;
28447;SDS011;15675;52.870;-1.416;2022-10-17T14:36:10;7.40;;;1.10;;
28447;SDS011;15675;52.870;-1.416;2022-10-17T14:38:36;10.80;;;1.48;;
28447;SDS011;15675;52.870;-1.416;2022-10-17T14:41:24;9.82;;;1.30;;
28447;SDS011;15675;52.870;-1.416;2022-10-17T14:43:51;11.60;;;1.70;;
28447;SDS011;15675;52.870;-1.416;2022-10-17T14:46:28;5.88;;;0.95;;
28447;SDS011;15675;52.870;-1.416;2022-10-17T14:49:02;8.02;;;1.10;;
28447;SDS011;15675;52.870;-1.416;2022-10-17T14:51:30;4.90;;;0.90;;
28447;SDS011;15675;52.870;-1.416;2022-10-17T14:54:20;5.90;;;1.67;;
28447;SDS011;15675;52.870;-1.416;2022-10-17T14:56:51;5.10;;;1.13;;
28447;SDS011;15675;52.870;-1.416;2022-10-17T14:59:17;11.40;;;1.90;;
28447;SDS011;15675;52.870;-1.416;2022-10-17T15:01:47;6.40;;;0.93;;
28447;SDS011;15675;52.870;-1.416;2022-10-17T15:04:13;9.52;;;1.20;;
28447;SDS011;15675;52.870;-1.416;2022-10-17T15:06:39;6.50;;;1.30;;
28447;SDS011;15675;52.870;-1.416;2022-10-17T15:09:05;11.77;;;1.08;;
28447;SDS011;15675;52.870;-1.416;2022-10-17T15:11:31;11.00;;;0.98;;
28447;SDS011;15675;52.870;-1.416;2022-10-17T15:13:56;5.25;;;1.13;;
28447;SDS011;15675;52.870;-1.416;2022-10-17T15:16:26;6.10;;;0.90;;
28447;SDS011;15675;52.870;-1.416;2022-10-17T15:18:55;10.65;;;1.10;;
28447;SDS011;15675;52.870;-1.416;2022-10-17T15:21:21;6.40;;;1.00;;
28447;SDS011;15675;52.870;-1.416;2022-10-17T15:23:48;5.03;;;0.80;;
28447;SDS011;15675;52.870;-1.416;2022-10-17T15:26:15;6.10;;;1.00;;
28447;SDS011;15675;52.870;-1.416;2022-10-17T15:28:45;4.35;;;0.82;;
28447;SDS011;15675;52.870;-1.416;2022-10-17T15:31:13;9.52;;;1.13;;
28447;SDS011;15675;52.870;-1.416;2022-10-17T15:33:40;4.80;;;1.08;;
28447;SDS011;15675;52.870;-1.416;2022-10-17T15:36:19;7.07;;;1.35;;
28447;SDS011;15675;52.870;-1.416;2022-10-17T15:38:48;5.10;;;1.00;;
28447;SDS011;15675;52.870;-1.416;2022-10-17T15:41:14;16.98;;;1.60;;
28447;SDS011;15675;52.870;-1.416;2022-10-17T15:43:40;7.72;;;1.30;;
28447;SDS011;15675;52.870;-1.416;2022-10-17T15:46:12;5.68;;;0.93;;
28447;SDS011;15675;52.870;-1.416;2022-10-17T15:48:41;8.15;;;0.88;;
28447;SDS011;15675;52.870;-1.416;2022-10-17T15:51:07;7.95;;;1.77;;
28447;SDS011;15675;52.870;-1.416;2022-10-17T15:53:33;6.15;;;1.52;;
28447;SDS011;15675;52.870;-1.416;2022-10-17T15:55:58;4.55;;;0.93;;
28447;SDS011;15675;52.870;-1.416;2022-10-17T15:58:26;7.07;;;0.95;;
28447;SDS011;15675;52.870;-1.416;2022-10-17T16:00:58;10.93;;;1.60;;
28447;SDS011;15675;52.870;-1.416;2022-10-17T16:03:23;4.32;;;1.10;;
28447;SDS011;15675;52.870;-1.416;2022-10-17T16:05:49;8.48;;;1.33;;
28447;SDS011;15675;52.870;-1.416;2022-10-17T16:08:14;10.30;;;1.35;;
28447;SDS011;15675;52.870;-1.416;2022-10-17T16:10:40;11.73;;;1.55;;
28447;SDS011;15675;52.870;-1.416;2022-10-17T16:13:05;6.90;;;1.40;;
28447;SDS011;15675;52.870;-1.416;2022-10-17T16:15:33;12.15;;;1.10;;
28447;SDS011;15675;52.870;-1.416;2022-10-17T16:17:59;5.93;;;1.27;;
28447;SDS011;15675;52.870;-1.416;2022-10-17T16:20:24;10.43;;;1.30;;
28447;SDS011;15675;52.870;-1.416;2022-10-17T16:22:50;9.48;;;1.35;;
28447;SDS011;15675;52.870;-1.416;2022-10-17T16:27:51;6.53;;;1.10;;
28447;SDS011;15675;52.870;-1.416;2022-10-17T16:30:18;8.55;;;1.38;;
28447;SDS011;15675;52.870;-1.416;2022-10-17T16:32:45;9.02;;;1.35;;
28447;SDS011;15675;52.870;-1.416;2022-10-17T16:35:19;6.40;;;1.13;;
28447;SDS011;15675;52.870;-1.416;2022-10-17T16:37:51;7.78;;;1.58;;
28447;SDS011;15675;52.870;-1.416;2022-10-17T16:40:17;5.85;;;1.48;;
28447;SDS011;15675;52.870;-1.416;2022-10-17T16:42:43;6.93;;;1.23;;
28447;SDS011;15675;52.870;-1.416;2022-10-17T16:45:19;9.48;;;0.90;;
28447;SDS011;15675;52.870;-1.416;2022-10-17T16:47:46;4.78;;;1.45;;
28447;SDS011;15675;52.870;-1.416;2022-10-17T16:50:13;7.25;;;1.33;;
28447;SDS011;15675;52.870;-1.416;2022-10-17T16:52:38;10.00;;;1.02;;
28447;SDS011;15675;52.870;-1.416;2022-10-17T16:55:04;8.40;;;1.13;;
28447;SDS011;15675;52.870;-1.416;2022-10-17T16:57:30;8.63;;;1.33;;
28447;SDS011;15675;52.870;-1.416;2022-10-17T16:59:55;8.40;;;1.67;;